ADDS TAF Board (Experimental) INFO

IDs: Format: Expanded Condensed

Updated at: 2121 UTC 26 Nov 2014

KMIA - Miami Intl, FL, US

Issued at 2007 UTC 26 Nov 2014
Time2053Z26/22Z26/23Z27/00Z27/01Z27/02Z27/03Z27/04Z27/05Z27/06Z27/07Z27/08Z27/09Z27/10Z
TypeOBSPRVLPRVLPRVLPRVLPRVLPRVLPRVLPRVLPRVLPRVLPRVLPRVLPRVL
VIS10>6>6>6>6>6>6>6>6>6>6>6>6>6
CIG75120120120--------------------
CoverBKNBKNBKNBKNFEWFEWFEWFEWFEWFEWFEWFEWFEWFEW
FltCat--VFRVFRVFRVFRVFRVFRVFRVFRVFRVFRVFRVFRVFR
WX----------------------------
WDir330330330330320320320320320320320320320320
WSpd87775555555555
WGst17--------------------------
R08/26
XWnd76664444444444
XGst15--------------------------
HWnd-4-3-3-3-3-3-3-3-3-3-3-3-3-3
HGst-8--------------------------
R09/27
XWnd76664444444444
XGst15--------------------------
HWnd-4-3-3-3-3-3-3-3-3-3-3-3-3-3
HGst-8--------------------------
R12/30
XWnd44442222222222
XGst9--------------------------
HWnd-7-6-6-6-5-5-5-5-5-5-5-5-5-5
HGst-15--------------------------
Raw TAF
KMIA 262007Z 2620/2718 33014G23KT P6SM OVC016
  FM262200 33007KT P6SM FEW010 SCT025 BKN120
  FM270100 32005KT P6SM FEW250


Raw METAR
KMIA 262053Z 33008G17KT 300V360 10SM SCT013 BKN075 BKN250 18/13 A3011 RMK AO2 SLP195 T01830133 53015
KMIA 262049Z 34008G16KT 10SM SCT013 BKN070 BKN250 18/13 A3010 RMK AO2

TAF Board Legend

Hazard VFR MVFR IFR LIFR
Visibility (sm) >5 3≤X≤5 1≤X<3 <1
Ceiling (100 ft) >30 10≤X≤30 5≤X<10 <5
Wind Speed (kt) <10 10≤X<20 20≤X<30 ≥30
Wind Gust (kt) <15 15≤X<25 25≤X<35 ≥35
Weather No Wx Reported VCTS,-TS,-FZRA TS,FZRA +TS,+FZRA


Page loaded:  21:21 UTC  |   01:21 PM Pacific  |   02:21 PM Mountain  |   03:21 PM Central  |   04:21 PM Eastern

 

ADVISORIES

FORECASTS

FORECASTS

OBSERVATIONS

USER TOOLS

ABOUT US